Time;durP1;ratioP1;P1;durP2;ratioP2;P2;SDS_P1;SDS_P2;PMS_P1;PMS_P2;Temp;Humidity;BMP_temperature;BMP_pressure;BME280_temperature;BME280_humidity;BME280_pressure;Samples;Min_cycle;Max_cycle;Signal;HPM_P1;HPM_P2
2023/03/20 00:03:56;;;;;;;10.80;5.47;;;;;;;12.85;33.03;99814.22;7658722;32;38154;-83
2023/03/20 00:08:13;;;;;;;10.98;5.30;;;;;;;12.84;33.06;99815.31;7658272;32;39382;-83
2023/03/20 00:12:28;;;;;;;10.90;5.53;;;;;;;12.91;32.88;99812.25;7658760;32;35469;-82
2023/03/20 00:16:46;;;;;;;10.85;5.28;;;;;;;12.71;33.25;99808.59;7658498;32;37971;-83
2023/03/20 00:21:02;;;;;;;10.93;5.62;;;;;;;12.74;33.47;99805.25;7644782;32;37053;-83
2023/03/20 00:25:23;;;;;;;12.07;6.00;;;;;;;12.60;33.63;99807.00;7658508;32;39658;-82
2023/03/20 00:29:39;;;;;;;12.07;5.97;;;;;;;12.66;33.92;99814.09;7658241;32;40785;-84
2023/03/20 00:33:59;;;;;;;9.70;5.00;;;;;;;12.50;34.74;99807.91;7658477;32;38673;-83
2023/03/20 00:38:15;;;;;;;11.00;5.97;;;;;;;12.30;35.69;99810.78;7656743;32;37019;-83
2023/03/20 00:42:32;;;;;;;11.93;6.68;;;;;;;12.05;36.53;99807.09;7644520;32;39498;-83
2023/03/20 00:47:23;;;;;;;11.15;6.20;;;;;;;12.16;37.26;99810.59;7658096;32;39875;-83
2023/03/20 00:51:41;;;;;;;11.63;6.10;;;;;;;11.90;37.26;99813.41;7651954;32;38610;-84
2023/03/20 00:55:57;;;;;;;13.15;6.25;;;;;;;11.88;37.00;99804.66;7644437;32;37843;-84
2023/03/20 01:00:30;;;;;;;11.10;5.60;;;;;;;11.82;37.03;99803.87;7657905;32;39429;-83
2023/03/20 01:04:47;;;;;;;11.80;5.97;;;;;;;11.94;36.00;99808.25;7657806;32;39917;-83
2023/03/20 01:09:04;;;;;;;12.70;6.00;;;;;;;11.54;36.82;99802.63;7657709;32;38785;-83
2023/03/20 01:13:25;;;;;;;13.48;5.72;;;;;;;11.59;37.27;99802.59;7657910;32;37048;-83
2023/03/20 01:17:42;;;;;;;9.23;5.45;;;;;;;11.60;36.58;99798.78;7657817;32;39409;-83
2023/03/20 01:21:58;;;;;;;10.93;5.90;;;;;;;11.73;36.02;99802.00;7657309;32;40514;-83
2023/03/20 01:26:42;;;;;;;11.15;6.05;;;;;;;11.52;36.45;99802.09;7657410;32;37955;-83
2023/03/20 01:30:59;;;;;;;10.50;5.57;;;;;;;11.56;36.53;99796.91;7657237;32;37812;-83
2023/03/20 01:35:18;;;;;;;10.75;5.75;;;;;;;11.63;36.43;99797.41;7657181;32;39292;-83
2023/03/20 01:39:35;;;;;;;11.70;5.57;;;;;;;11.36;36.93;99806.75;7657169;32;39953;-83
2023/03/20 01:43:52;;;;;;;9.40;5.12;;;;;;;11.55;36.83;99800.72;7655913;32;37911;-83
2023/03/20 01:48:18;;;;;;;11.60;5.25;;;;;;;11.49;36.42;99791.72;7657038;32;37590;-83
2023/03/20 01:52:34;;;;;;;9.77;5.53;;;;;;;11.58;36.25;99791.97;7655739;32;40182;-84
2023/03/20 01:56:59;;;;;;;10.65;5.32;;;;;;;11.45;36.31;99786.00;7656801;32;40618;-83
2023/03/20 02:01:17;;;;;;;10.52;5.40;;;;;;;11.60;35.94;99782.38;7655939;32;38087;-83
2023/03/20 02:05:35;;;;;;;16.12;5.87;;;;;;;11.62;35.62;99785.69;7657021;32;37124;-84
2023/03/20 02:09:52;;;;;;;14.50;6.75;;;;;;;11.40;35.94;99793.38;7659967;32;39343;-83
2023/03/20 02:14:07;;;;;;;9.45;5.55;;;;;;;11.22;38.83;99787.41;7660017;32;40364;-84
2023/03/20 02:18:24;;;;;;;12.30;5.82;;;;;;;11.26;38.37;99783.06;7659816;32;37828;-83
2023/03/20 02:23:20;;;;;;;14.52;5.95;;;;;;;11.14;37.95;99793.44;7659667;32;37659;-84
2023/03/20 02:28:05;;;;;;;10.88;5.40;;;;;;;11.03;38.34;99789.09;7659931;32;40476;-83
2023/03/20 02:32:43;;;;;;;10.85;5.95;;;;;;;10.98;38.46;99789.91;7652691;32;39855;-83
2023/03/20 02:37:28;;;;;;;10.25;5.62;;;;;;;10.61;39.02;99793.75;7659620;32;38621;-84
2023/03/20 02:41:56;;;;;;;9.10;5.43;;;;;;;10.47;39.08;99782.56;7645513;32;36938;-83
2023/03/20 02:46:33;;;;;;;10.77;5.70;;;;;;;10.62;38.32;99781.72;7659778;32;40041;-83
2023/03/20 02:51:00;;;;;;;9.48;4.82;;;;;;;10.57;38.06;99786.38;7658347;32;40877;-83
2023/03/20 02:55:34;;;;;;;9.93;5.47;;;;;;;10.75;37.98;99794.00;7658070;32;38115;-83
2023/03/20 03:00:00;;;;;;;9.25;5.53;;;;;;;10.57;38.47;99791.81;7659550;32;37223;-84
2023/03/20 03:04:19;;;;;;;13.45;6.28;;;;;;;10.44;39.24;99788.53;7645881;32;39826;-83
2023/03/20 03:08:41;;;;;;;9.27;5.55;;;;;;;10.36;39.27;99785.53;7659394;32;41193;-83
2023/03/20 03:12:59;;;;;;;13.38;6.20;;;;;;;10.27;39.56;99775.13;7658128;32;37946;-83
2023/03/20 03:17:18;;;;;;;12.00;5.53;;;;;;;10.20;39.67;99781.94;7657200;32;37243;-83
2023/03/20 03:21:37;;;;;;;10.27;5.05;;;;;;;10.21;39.55;99786.28;7657959;32;39502;-83
2023/03/20 03:25:55;;;;;;;12.88;5.53;;;;;;;10.20;39.46;99790.13;7658898;32;40785;-83
2023/03/20 03:30:17;;;;;;;11.90;5.57;;;;;;;9.92;40.34;99803.13;7658429;32;37859;-84
2023/03/20 03:34:34;;;;;;;9.43;5.53;;;;;;;10.02;40.44;99786.81;7659079;32;37120;-84
2023/03/20 03:38:59;;;;;;;10.85;6.15;;;;;;;10.08;40.10;99793.88;7658915;32;39452;-83
2023/03/20 03:43:46;;;;;;;11.35;5.95;;;;;;;9.94;40.32;99792.75;7658943;32;39933;-84
2023/03/20 03:48:19;;;;;;;9.18;5.32;;;;;;;9.93;40.27;99796.56;7657849;32;37733;-83
2023/03/20 03:52:37;;;;;;;11.55;5.57;;;;;;;10.00;40.20;99793.59;7657559;32;37307;-83
2023/03/20 03:56:55;;;;;;;10.95;6.12;;;;;;;9.89;40.68;99793.56;7658707;32;39413;-83
2023/03/20 04:01:13;;;;;;;13.62;6.22;;;;;;;9.94;40.55;99800.94;7658635;32;39993;-84
2023/03/20 04:05:31;;;;;;;13.10;6.10;;;;;;;9.81;40.85;99806.88;7658685;32;38895;-84
2023/03/20 04:09:48;;;;;;;12.52;6.53;;;;;;;9.86;40.90;99810.41;7657521;32;36796;-83
2023/03/20 04:14:05;;;;;;;10.77;6.43;;;;;;;9.76;41.26;99810.37;7658761;32;40107;-83
2023/03/20 04:18:21;;;;;;;10.77;5.47;;;;;;;9.70;41.37;99815.00;7658652;32;40764;-83
2023/03/20 04:22:38;;;;;;;11.38;6.07;;;;;;;9.48;41.91;99808.91;7658135;32;38660;-83
2023/03/20 04:26:55;;;;;;;14.50;6.20;;;;;;;9.46;42.00;99801.00;7658203;32;37346;-83
2023/03/20 04:31:13;;;;;;;11.88;6.25;;;;;;;9.44;41.92;99802.34;7644318;32;39354;-84
2023/03/20 04:35:29;;;;;;;11.73;6.30;;;;;;;9.27;42.20;99803.34;7658353;32;40786;-84
2023/03/20 04:39:46;;;;;;;13.82;6.47;;;;;;;9.18;42.34;99811.16;7658147;32;38619;-83
2023/03/20 04:44:02;;;;;;;12.50;6.40;;;;;;;9.14;42.10;99820.09;7658502;32;37009;-83
2023/03/20 04:48:19;;;;;;;13.40;6.53;;;;;;;9.28;42.15;99818.59;7644615;32;40162;-82
2023/03/20 04:52:35;;;;;;;10.38;6.32;;;;;;;9.03;43.08;99813.78;7657890;32;39934;-84
2023/03/20 04:56:51;;;;;;;12.35;6.15;;;;;;;9.14;42.69;99809.22;7658092;32;38552;-84
2023/03/20 05:01:08;;;;;;;12.37;5.85;;;;;;;8.97;43.22;99812.94;7643770;32;37235;-83
2023/03/20 05:05:24;;;;;;;11.93;6.05;;;;;;;9.05;43.20;99824.41;7657871;32;39347;-83
2023/03/20 05:09:40;;;;;;;11.43;5.28;;;;;;;9.02;43.45;99818.41;7657892;32;40184;-82
2023/03/20 05:13:57;;;;;;;15.40;6.40;;;;;;;8.96;43.19;99824.88;7657718;32;39471;-83
2023/03/20 05:18:13;;;;;;;11.98;5.75;;;;;;;9.18;42.61;99832.13;7657491;32;37126;-83
2023/03/20 05:22:29;;;;;;;11.77;5.15;;;;;;;9.02;42.54;99829.28;7657562;32;39554;-83
2023/03/20 05:26:46;;;;;;;11.98;5.97;;;;;;;9.14;42.29;99841.87;7657567;32;40841;-83
2023/03/20 05:31:02;;;;;;;11.35;6.10;;;;;;;9.18;42.51;99838.38;7656949;32;37812;-84
2023/03/20 05:35:19;;;;;;;10.80;5.82;;;;;;;9.15;42.95;99838.06;7656202;32;37127;-84
2023/03/20 05:39:35;;;;;;;13.57;6.28;;;;;;;9.24;42.94;99847.38;7655016;32;40079;-84
2023/03/20 05:43:52;;;;;;;12.07;6.50;;;;;;;9.25;43.32;99848.22;7657173;32;40097;-85
2023/03/20 05:48:08;;;;;;;11.55;6.00;;;;;;;9.39;43.25;99855.66;7656926;32;38937;-84
2023/03/20 05:52:25;;;;;;;14.98;6.37;;;;;;;9.25;44.31;99859.91;7655491;32;37447;-84
2023/03/20 05:56:41;;;;;;;10.55;5.40;;;;;;;9.48;43.90;99877.75;7642962;32;39440;-83
2023/03/20 06:00:58;;;;;;;9.63;5.43;;;;;;;9.40;43.98;99889.13;7656693;32;39930;-84
2023/03/20 06:05:14;;;;;;;11.35;6.00;;;;;;;9.52;43.73;99886.19;7656636;32;37712;-84
2023/03/20 06:09:31;;;;;;;13.25;5.95;;;;;;;9.38;44.49;99886.69;7643286;32;35366;-84
2023/03/20 06:13:49;;;;;;;12.15;5.75;;;;;;;9.70;44.10;99883.06;7655286;32;40296;-85
2023/03/20 06:18:05;;;;;;;12.07;6.03;;;;;;;9.81;44.16;99878.47;7656219;32;39974;-85
2023/03/20 06:22:22;;;;;;;11.73;6.75;;;;;;;9.78;44.13;99871.66;7654751;32;38709;-84
2023/03/20 06:26:38;;;;;;;16.05;8.60;;;;;;;9.10;46.07;99882.38;7655901;32;38242;-83
2023/03/20 06:30:55;;;;;;;15.75;8.05;;;;;;;9.00;47.67;99888.56;7655847;32;40365;-83
2023/03/20 06:35:12;;;;;;;23.52;8.48;;;;;;;9.16;48.00;99884.06;7655821;32;40005;-83
2023/03/20 06:39:28;;;;;;;14.77;7.18;;;;;;;9.22;48.06;99882.19;7655804;32;37539;-83
2023/03/20 06:43:45;;;;;;;15.50;7.20;;;;;;;9.10;48.51;99892.44;7655333;32;37966;-83
2023/03/20 06:48:04;;;;;;;14.93;6.80;;;;;;;9.36;47.79;99905.12;7655438;32;39517;-82
2023/03/20 06:52:21;;;;;;;14.32;6.70;;;;;;;9.70;46.32;99896.66;7658174;32;40646;-83
2023/03/20 06:56:37;;;;;;;11.23;6.28;;;;;;;9.96;46.07;99897.62;7658661;32;38626;-85
2023/03/20 07:00:54;;;;;;;13.25;6.53;;;;;;;9.98;46.34;99902.78;7658594;32;38088;-86
2023/03/20 07:05:10;;;;;;;9.65;5.90;;;;;;;10.26;45.82;99900.72;7659229;32;39354;-84
2023/03/20 07:09:28;;;;;;;13.88;6.90;;;;;;;10.59;45.10;99899.53;7659231;32;39083;-83
2023/03/20 07:13:45;;;;;;;13.57;6.45;;;;;;;10.45;45.18;99901.94;7658907;32;37952;-71
2023/03/20 07:18:05;;;;;;;12.27;6.75;;;;;;;10.85;45.90;99894.94;7659372;32;37105;-81
2023/03/20 07:22:23;;;;;;;12.73;5.97;;;;;;;10.79;45.55;99893.25;7658961;32;40259;-84
2023/03/20 07:26:40;;;;;;;12.75;6.28;;;;;;;11.12;44.41;99895.75;7658658;32;40007;-84
2023/03/20 07:30:56;;;;;;;9.98;6.12;;;;;;;11.50;42.10;99899.81;7658570;32;37520;-84
2023/03/20 07:35:12;;;;;;;11.50;6.18;;;;;;;10.86;43.20;99902.00;7658817;32;38134;-83
2023/03/20 07:39:29;;;;;;;10.00;5.72;;;;;;;10.93;43.42;99898.19;7659046;32;39561;-84
2023/03/20 07:43:45;;;;;;;12.23;5.93;;;;;;;11.11;43.02;99900.41;7658882;32;40949;-85
2023/03/20 07:48:02;;;;;;;16.42;7.07;;;;;;;11.64;41.90;99900.06;7658919;32;38650;-82
2023/03/20 07:52:20;;;;;;;13.25;6.72;;;;;;;11.51;42.33;99906.91;7658874;32;36411;-83
2023/03/20 07:56:36;;;;;;;13.88;7.82;;;;;;;11.94;41.46;99896.47;7658503;32;39458;-81
2023/03/20 08:00:55;;;;;;;18.12;9.05;;;;;;;12.23;41.64;99898.56;7658643;32;40044;-83
2023/03/20 08:05:11;;;;;;;16.65;8.80;;;;;;;11.92;41.83;99904.13;7647143;32;331523;-82
2023/03/20 08:09:30;;;;;;;21.95;12.07;;;;;;;12.35;41.22;99900.97;7658603;32;37228;-83
2023/03/20 08:13:46;;;;;;;18.45;10.45;;;;;;;11.83;43.32;99917.53;7645223;32;39046;-83
2023/03/20 08:18:03;;;;;;;23.00;11.10;;;;;;;12.35;42.99;99915.44;7657894;32;39668;-82
2023/03/20 08:22:20;;;;;;;20.17;9.00;;;;;;;12.81;43.20;99910.81;7657242;32;38858;-83
2023/03/20 08:26:36;;;;;;;14.50;8.30;;;;;;;13.14;40.35;99906.47;7658474;32;37116;-83
2023/03/20 08:30:52;;;;;;;13.55;7.55;;;;;;;13.48;39.21;99905.66;7657132;32;39045;-82
2023/03/20 08:35:10;;;;;;;14.55;8.40;;;;;;;13.85;37.53;99905.03;7657741;32;40833;-82
2023/03/20 08:39:44;;;;;;;16.77;8.18;;;;;;;13.95;36.96;99895.84;7656800;32;37741;-82
2023/03/20 08:44:01;;;;;;;14.23;7.28;;;;;;;14.18;37.00;99902.44;7658199;32;37115;-84
2023/03/20 08:48:20;;;;;;;36.97;10.23;;;;;;;14.32;36.52;99902.53;7658381;32;39592;-85
2023/03/20 08:52:36;;;;;;;16.40;8.10;;;;;;;14.45;36.74;99911.97;7657863;32;40869;-84
2023/03/20 08:56:55;;;;;;;15.35;8.38;;;;;;;14.64;36.22;99910.09;7657438;32;37335;-83
2023/03/20 09:01:14;;;;;;;14.38;8.15;;;;;;;14.55;36.27;99905.53;7657846;32;37126;-88
2023/03/20 09:05:35;;;;;;;14.52;7.55;;;;;;;14.86;36.39;99905.94;7656907;32;39178;-87
2023/03/20 09:09:52;;;;;;;20.40;9.07;;;;;;;14.72;35.48;99913.28;7656798;32;39983;-86
2023/03/20 09:14:08;;;;;;;14.63;7.72;;;;;;;14.54;36.46;99910.22;7655383;32;37500;-87
2023/03/20 09:18:27;;;;;;;16.08;7.45;;;;;;;15.03;34.97;99906.22;7657926;32;37059;-87
2023/03/20 09:22:44;;;;;;;13.18;7.75;;;;;;;14.97;34.35;99910.16;7656389;32;39350;-87
2023/03/20 09:27:02;;;;;;;16.58;8.30;;;;;;;15.07;34.83;99908.38;7657620;32;39682;-87
2023/03/20 09:31:19;;;;;;;15.43;8.52;;;;;;;15.13;34.44;99904.44;7657668;32;37927;-86
2023/03/20 09:35:35;;;;;;;16.95;8.15;;;;;;;15.72;34.09;99894.59;7657724;32;37935;-87
2023/03/20 09:39:54;;;;;;;15.93;8.40;;;;;;;15.53;33.53;99907.59;7657524;32;39631;-88
2023/03/20 09:44:50;;;;;;;15.18;7.70;;;;;;;15.95;34.86;99900.25;7657244;32;39847;-75
2023/03/20 09:49:24;;;;;;;15.35;7.78;;;;;;;16.30;33.98;99895.16;7641278;32;37860;-75
2023/03/20 09:53:45;;;;;;;21.37;9.52;;;;;;;16.00;33.99;99899.34;7656122;32;37834;-87
2023/03/20 09:58:36;;;;;;;17.05;8.63;;;;;;;15.23;33.92;99893.28;7655865;32;39257;-86
2023/03/20 10:03:21;;;;;;;13.40;7.50;;;;;;;15.42;34.32;99900.66;7654394;32;40548;-86
2023/03/20 10:07:39;;;;;;;17.35;7.30;;;;;;;15.66;34.12;99895.84;7641637;32;37903;-87
2023/03/20 10:12:03;;;;;;;12.93;6.22;;;;;;;15.84;33.59;99893.34;7656646;32;37550;-86
2023/03/20 10:16:38;;;;;;;;;;;;;;;15.66;33.08;99901.31;7656817;32;40132;-85
2023/03/20 10:21:02;;;;;;;11.73;5.87;;;;;;;15.50;34.20;99892.53;7656517;32;40197;-86
2023/03/20 10:25:29;;;;;;;12.55;6.37;;;;;;;15.33;33.42;99898.62;7656779;32;38442;-85
2023/03/20 10:30:10;;;;;;;13.43;5.70;;;;;;;15.35;33.56;99888.13;7659775;32;37264;-86
2023/03/20 10:34:37;;;;;;;11.30;6.37;;;;;;;15.66;32.27;99890.34;7659251;32;39344;-83
2023/03/20 10:39:18;;;;;;;12.23;6.03;;;;;;;15.88;31.91;99886.09;7662402;32;40045;-80
2023/03/20 10:43:38;;;;;;;10.77;5.65;;;;;;;15.81;32.70;99894.75;7667097;32;38180;-81
2023/03/20 10:48:00;;;;;;;13.00;6.43;;;;;;;16.51;32.47;99882.56;7661459;32;38423;-84
2023/03/20 10:52:34;;;;;;;11.75;6.22;;;;;;;16.59;31.80;99878.28;7658419;32;40160;-87
2023/03/20 10:56:54;;;;;;;12.65;6.00;;;;;;;16.87;31.64;99884.53;7659493;32;39937;-86
2023/03/20 11:01:11;;;;;;;15.13;7.07;;;;;;;17.19;32.06;99874.38;7658204;32;38117;-86
2023/03/20 11:05:32;;;;;;;15.07;6.40;;;;;;;17.20;31.31;99869.72;7659763;32;37849;-87
2023/03/20 11:10:12;;;;;;;13.60;6.30;;;;;;;17.50;31.07;99868.09;7659579;32;38338;-86
2023/03/20 11:14:36;;;;;;;13.18;6.10;;;;;;;17.86;30.69;99853.38;7659170;32;39913;-85
2023/03/20 11:18:53;;;;;;;;;;;;;;;17.68;30.55;99865.41;7659597;32;37995;-85
2023/03/20 11:23:18;;;;;;;23.12;6.30;;;;;;;17.61;30.30;99858.44;7659463;32;35960;-85
2023/03/20 11:27:35;;;;;;;14.83;6.33;;;;;;;17.34;29.93;99858.63;7659206;32;40151;-83
2023/03/20 11:31:51;;;;;;;13.15;6.00;;;;;;;16.79;31.34;99849.47;7658419;32;40029;-84
2023/03/20 11:36:20;;;;;;;12.13;6.25;;;;;;;17.27;30.93;99842.53;7658638;32;37869;-84
2023/03/20 11:40:37;;;;;;;12.05;6.37;;;;;;;17.29;31.26;99836.72;7658743;32;38114;-83
2023/03/20 11:45:02;;;;;;;16.92;6.87;;;;;;;17.41;29.86;99839.69;7658931;32;40125;-84
2023/03/20 11:49:24;;;;;;;12.63;6.83;;;;;;;17.69;30.07;99825.69;7657875;32;39582;-84
2023/03/20 11:53:47;;;;;;;10.07;6.05;;;;;;;17.75;30.39;99825.25;7657847;32;37557;-84
2023/03/20 11:58:05;;;;;;;13.98;6.75;;;;;;;17.98;30.29;99823.22;7658006;32;37740;-88
2023/03/20 12:02:26;;;;;;;12.27;7.05;;;;;;;18.19;29.41;99822.62;7657767;32;39904;-84
2023/03/20 12:07:00;;;;;;;14.10;6.82;;;;;;;17.67;30.00;99816.94;7658773;32;40755;-84
2023/03/20 12:11:36;;;;;;;17.92;6.90;;;;;;;18.56;28.87;99814.88;7657540;32;37916;-84
2023/03/20 12:16:15;;;;;;;13.38;7.18;;;;;;;18.95;28.04;99799.25;7658605;32;37246;-85
2023/03/20 12:20:45;;;;;;;14.60;6.93;;;;;;;18.49;27.24;99795.19;7657537;32;40139;-85
2023/03/20 12:25:23;;;;;;;19.35;6.35;;;;;;;18.81;26.79;99790.34;7652878;32;40716;-85
2023/03/20 12:29:51;;;;;;;14.85;8.05;;;;;;;18.87;27.25;99791.81;7644703;32;38065;-85
2023/03/20 12:34:26;;;;;;;20.17;7.37;;;;;;;19.10;27.41;99779.41;7645209;32;37971;-85
2023/03/20 12:38:44;;;;;;;17.50;8.32;;;;;;;19.65;26.50;99779.69;7645112;32;39361;-85
2023/03/20 12:43:13;;;;;;;17.00;8.10;;;;;;;19.34;27.12;99772.50;7644956;32;39979;-85
2023/03/20 12:47:57;;;;;;;15.77;7.78;;;;;;;19.42;26.76;99771.66;7658068;32;38342;-86
2023/03/20 12:52:39;;;;;;;13.57;7.50;;;;;;;20.14;25.82;99766.22;7658015;32;37146;-86
2023/03/20 12:57:18;;;;;;;16.58;8.73;;;;;;;19.84;26.34;99762.69;7657839;32;39165;-85
2023/03/20 13:01:55;;;;;;;16.27;7.80;;;;;;;19.97;26.34;99755.28;7657261;32;40194;-84
2023/03/20 13:06:23;;;;;;;16.58;9.07;;;;;;;19.73;26.96;99756.72;7645415;32;38529;-88
2023/03/20 13:10:53;;;;;;;15.98;8.18;;;;;;;19.54;27.46;99759.09;7657938;32;37380;-83
2023/03/20 13:15:29;;;;;;;16.83;8.32;;;;;;;19.88;26.35;99747.84;7657908;32;40226;-84
2023/03/20 13:20:17;;;;;;;19.73;8.85;;;;;;;20.19;26.38;99740.31;7657734;32;40810;-79
2023/03/20 13:24:54;;;;;;;15.05;7.95;;;;;;;20.03;26.31;99745.66;7642399;32;38095;-78
2023/03/20 13:29:30;;;;;;;15.10;7.87;;;;;;;20.52;25.55;99726.50;7644446;32;38256;-78
2023/03/20 13:34:17;;;;;;;15.90;7.93;;;;;;;20.24;26.34;99738.16;7657604;32;39361;-86
2023/03/20 13:38:37;;;;;;;18.65;8.30;;;;;;;20.53;26.13;99725.38;7656655;32;39899;-85
2023/03/20 13:43:05;;;;;;;15.07;8.55;;;;;;;20.38;26.53;99720.47;7657025;32;38828;-85
2023/03/20 13:47:26;;;;;;;15.52;8.40;;;;;;;20.76;26.10;99708.38;7655868;32;37947;-85
2023/03/20 13:52:50;;;;;;;17.73;8.77;;;;;;;21.34;25.32;99700.84;7656015;32;39949;-85
2023/03/20 13:57:33;;;;;;;16.20;8.07;;;;;;;21.29;25.95;99689.19;7594410;32;39513;-85
2023/03/20 14:02:03;;;;;;;18.25;7.95;;;;;;;21.54;25.92;99699.16;7631975;32;38379;-86
2023/03/20 14:06:31;;;;;;;14.25;7.40;;;;;;;21.29;25.79;99690.00;7659960;32;37050;-85
2023/03/20 14:10:47;;;;;;;13.60;6.68;;;;;;;21.09;26.31;99696.44;7660308;32;38605;-86
2023/03/20 14:15:10;;;;;;;9.75;5.18;;;;;;;21.10;27.04;99695.28;7659816;32;38963;-86
2023/03/20 14:19:28;;;;;;;12.80;6.65;;;;;;;20.93;27.02;99688.00;7658847;32;37420;-83
2023/03/20 14:23:48;;;;;;;9.27;5.07;;;;;;;22.02;26.10;99685.50;7658077;32;37033;-86
2023/03/20 14:28:21;;;;;;;12.82;4.70;;;;;;;21.73;26.35;99693.00;7659733;32;40438;-86
2023/03/20 14:32:56;;;;;;;8.27;4.20;;;;;;;22.01;26.18;99683.91;7658763;32;40151;-85
2023/03/20 14:37:36;;;;;;;7.90;4.25;;;;;;;22.17;26.03;99674.84;7658305;32;37621;-83
2023/03/20 14:42:12;;;;;;;11.23;4.22;;;;;;;22.72;25.28;99670.44;7657394;32;38009;-85
2023/03/20 14:46:49;;;;;;;9.70;4.20;;;;;;;22.18;26.30;99671.72;7659698;32;39284;-82
2023/03/20 14:51:36;;;;;;;8.15;4.50;;;;;;;21.86;26.58;99674.34;7630540;32;39964;-84
2023/03/20 14:56:04;;;;;;;7.78;4.60;;;;;;;21.97;27.06;99666.34;7632524;32;38284;-84
2023/03/20 15:00:29;;;;;;;10.80;4.57;;;;;;;22.03;27.12;99669.69;7632596;32;35616;-84
2023/03/20 15:04:45;;;;;;;6.62;3.60;;;;;;;21.43;28.06;99672.19;7619281;32;39301;-84
2023/03/20 15:09:08;;;;;;;7.75;3.33;;;;;;;22.14;26.31;99662.47;7632213;32;40902;-85
2023/03/20 15:13:26;;;;;;;8.85;3.67;;;;;;;22.16;25.96;99668.47;7632904;32;37589;-84
2023/03/20 15:17:46;;;;;;;8.20;4.37;;;;;;;22.89;25.23;99663.72;7631529;32;37871;-85
2023/03/20 15:22:13;;;;;;;7.65;4.03;;;;;;;22.55;25.61;99668.00;7632390;32;39584;-83
2023/03/20 15:26:33;;;;;;;11.77;4.60;;;;;;;22.04;26.77;99672.13;7632672;32;40007;-83
2023/03/20 15:30:54;;;;;;;7.70;4.05;;;;;;;21.86;27.79;99666.03;7631944;32;38686;-82
2023/03/20 15:35:15;;;;;;;9.82;4.53;;;;;;;22.44;26.54;99667.72;7619554;32;37075;-83
2023/03/20 15:39:49;;;;;;;6.43;3.73;;;;;;;22.20;26.75;99671.38;7623473;32;40050;-85
2023/03/20 15:44:14;;;;;;;9.70;3.90;;;;;;;22.21;26.65;99670.19;7657634;32;40773;-85
2023/03/20 15:48:31;;;;;;;17.12;4.03;;;;;;;21.27;27.63;99678.44;7658312;32;36576;-85
2023/03/20 15:52:53;;;;;;;7.60;4.30;;;;;;;21.70;27.99;99679.81;7658592;32;37109;-85
2023/03/20 15:57:13;;;;;;;6.97;4.12;;;;;;;21.51;28.21;99687.94;7658486;32;39313;-83
2023/03/20 16:01:31;;;;;;;10.55;4.18;;;;;;;21.62;27.79;99680.75;7656100;32;39847;-82
2023/03/20 16:05:49;;;;;;;16.37;3.97;;;;;;;22.07;26.55;99679.72;7658348;32;37938;-83
2023/03/20 16:10:21;;;;;;;11.23;4.50;;;;;;;22.95;25.25;99678.16;7657037;32;37793;-83
2023/03/20 16:14:37;;;;;;;8.07;3.40;;;;;;;22.42;25.82;99679.16;7657813;32;39334;-82
2023/03/20 16:18:54;;;;;;;7.35;3.67;;;;;;;23.03;25.05;99675.19;7656841;32;40854;-82
2023/03/20 16:23:24;;;;;;;7.87;3.87;;;;;;;23.66;24.57;99681.06;7657302;32;37879;-83
2023/03/20 16:27:41;;;;;;;7.05;3.55;;;;;;;24.46;23.47;99679.63;7657360;32;37294;-82
2023/03/20 16:32:06;;;;;;;7.53;4.32;;;;;;;25.21;22.46;99685.75;7654588;32;39362;-82
2023/03/20 16:36:31;;;;;;;7.78;4.25;;;;;;;24.95;22.58;99688.50;7656161;32;39914;-82
2023/03/20 16:40:48;;;;;;;11.17;4.23;;;;;;;24.53;23.20;99690.91;7655836;32;38029;-83
2023/03/20 16:45:14;;;;;;;7.97;4.00;;;;;;;23.91;24.22;99701.97;7655426;32;36933;-82
2023/03/20 16:49:47;;;;;;;8.15;4.05;;;;;;;22.94;25.15;99713.50;7656655;32;39099;-83
2023/03/20 16:54:04;;;;;;;9.05;5.72;;;;;;;22.15;26.23;99718.81;7657456;32;40780;-81
2023/03/20 16:58:27;;;;;;;20.70;11.00;;;;;;;21.19;27.82;99726.47;7657454;32;39099;-82
2023/03/20 17:02:48;;;;;;;12.23;5.10;;;;;;;20.69;28.75;99728.34;7655675;32;37280;-82
2023/03/20 17:07:24;;;;;;;27.42;10.20;;;;;;;20.30;29.38;99727.69;7656486;32;39709;-82
2023/03/20 17:11:47;;;;;;;10.88;5.00;;;;;;;19.94;29.92;99736.59;7657459;32;40688;-82
2023/03/20 17:16:05;;;;;;;9.75;4.65;;;;;;;19.47;30.74;99735.53;7655861;32;38769;-81
2023/03/20 17:20:24;;;;;;;12.60;6.10;;;;;;;18.98;31.42;99737.84;7657741;32;37035;-81
2023/03/20 17:24:41;;;;;;;9.85;5.75;;;;;;;18.76;31.79;99745.19;7657139;32;39271;-81
2023/03/20 17:28:57;;;;;;;13.30;5.22;;;;;;;18.48;32.34;99746.69;7656988;32;40045;-81
2023/03/20 17:33:15;;;;;;;8.48;4.68;;;;;;;18.33;32.74;99736.94;7643278;32;37808;-81
2023/03/20 17:37:32;;;;;;;15.50;8.27;;;;;;;18.12;33.08;99739.53;7642364;32;37387;-81
2023/03/20 17:41:50;;;;;;;11.48;4.70;;;;;;;18.06;33.27;99746.31;7656066;32;39602;-80
2023/03/20 17:46:09;;;;;;;12.18;7.12;;;;;;;17.59;34.07;99749.63;7656634;32;40667;-81
2023/03/20 17:50:26;;;;;;;10.50;5.30;;;;;;;17.55;34.25;99752.19;7656916;32;37993;-81
2023/03/20 17:54:45;;;;;;;13.80;7.40;;;;;;;17.54;34.35;99752.50;7656530;32;36532;-80
2023/03/20 17:59:02;;;;;;;10.80;5.75;;;;;;;17.33;34.71;99760.53;7656706;32;39390;-81
2023/03/20 18:03:20;;;;;;;93.55;44.72;;;;;;;17.15;35.22;99763.22;7656210;32;40805;-81
2023/03/20 18:07:36;;;;;;;15.65;7.87;;;;;;;16.96;35.44;99765.41;7655057;32;37784;-82
2023/03/20 18:11:53;;;;;;;13.90;6.50;;;;;;;16.89;35.76;99769.41;7655372;32;37180;-82
2023/03/20 18:16:21;;;;;;;16.35;7.50;;;;;;;16.70;36.23;99772.31;7655839;32;40218;-82
2023/03/20 18:20:41;;;;;;;13.65;7.32;;;;;;;16.64;36.40;99776.34;7655883;32;38477;-83
2023/03/20 18:25:01;;;;;;;14.85;7.80;;;;;;;16.70;36.22;99768.75;7655058;32;37832;-82
2023/03/20 18:29:19;;;;;;;20.90;9.65;;;;;;;16.46;36.71;99780.87;7655431;32;37088;-85
2023/03/20 18:33:35;;;;;;;17.87;9.68;;;;;;;16.34;37.18;99777.88;7656101;32;39984;-85
2023/03/20 18:37:53;;;;;;;20.33;10.40;;;;;;;16.30;37.06;99780.44;7655196;32;40013;-84
2023/03/20 18:42:11;;;;;;;15.52;7.97;;;;;;;16.14;37.49;99785.47;7655191;32;37301;-84
2023/03/20 18:46:27;;;;;;;18.87;7.95;;;;;;;16.21;37.33;99792.47;7655751;32;37280;-86
2023/03/20 18:50:49;;;;;;;17.37;8.57;;;;;;;16.08;37.59;99792.19;7658866;32;39307;-84
2023/03/20 18:55:06;;;;;;;13.30;7.62;;;;;;;16.09;37.72;99791.09;7658906;32;39966;-84
2023/03/20 18:59:22;;;;;;;13.93;7.18;;;;;;;15.89;38.13;99788.78;7658933;32;37103;-84
2023/03/20 19:03:40;;;;;;;16.62;7.53;;;;;;;16.02;37.76;99787.91;7659307;32;38221;-84
2023/03/20 19:07:58;;;;;;;14.95;7.78;;;;;;;15.53;38.96;99792.22;7659332;32;39044;-84
2023/03/20 19:12:14;;;;;;;14.77;7.80;;;;;;;15.27;39.65;99795.44;7659205;32;42154;-84
2023/03/20 19:16:40;;;;;;;15.13;8.52;;;;;;;15.40;39.47;99793.81;7645550;32;37907;-83
2023/03/20 19:20:57;;;;;;;12.35;7.40;;;;;;;15.45;39.39;99801.16;7658547;32;37209;-83
2023/03/20 19:25:13;;;;;;;15.35;7.35;;;;;;;15.53;39.21;99803.19;7644825;32;39311;-84
2023/03/20 19:29:29;;;;;;;13.70;7.70;;;;;;;15.52;39.19;99801.56;7656751;32;40016;-86
2023/03/20 19:33:46;;;;;;;13.62;7.70;;;;;;;15.57;39.01;99804.22;7658510;32;37947;-86
2023/03/20 19:38:02;;;;;;;14.90;8.05;;;;;;;15.47;39.56;99798.91;7658791;32;37099;-86
2023/03/20 19:42:19;;;;;;;13.82;7.40;;;;;;;15.48;39.39;99800.56;7658763;32;39948;-85
2023/03/20 19:46:55;;;;;;;14.40;7.78;;;;;;;15.45;39.57;99792.91;7658415;32;40181;-84
2023/03/20 19:51:17;;;;;;;13.60;7.80;;;;;;;15.45;39.70;99798.41;7658119;32;38360;-83
2023/03/20 19:55:34;;;;;;;13.62;6.90;;;;;;;15.35;40.03;99800.25;7658702;32;37289;-84
2023/03/20 19:59:51;;;;;;;15.48;7.15;;;;;;;15.46;39.77;99794.56;7657789;32;40068;-83
2023/03/20 20:04:07;;;;;;;16.65;7.25;;;;;;;15.33;40.14;99805.22;7658361;32;40940;-85
2023/03/20 20:08:25;;;;;;;14.98;7.15;;;;;;;15.38;40.07;99799.62;7658409;32;38081;-84
2023/03/20 20:13:00;;;;;;;14.38;7.30;;;;;;;14.83;41.47;99796.75;7658525;32;37948;-85
2023/03/20 20:17:16;;;;;;;10.85;6.75;;;;;;;15.12;40.74;99792.97;7658400;32;40084;-85
2023/03/20 20:21:33;;;;;;;13.02;7.25;;;;;;;15.32;40.32;99784.34;7657979;32;39627;-85
2023/03/20 20:26:09;;;;;;;10.63;6.65;;;;;;;15.20;40.64;99784.03;7657278;32;38114;-84
2023/03/20 20:30:25;;;;;;;13.38;6.82;;;;;;;15.32;40.33;99792.59;7658096;32;37341;-86